sensor_id;sensor_type;location;lat;lon;timestamp;temperature;humidity
51035;DHT22;37062;52.546;13.230;2024-02-04T00:00:20;10.10;99.90
51035;DHT22;37062;52.546;13.230;2024-02-04T00:02:48;10.10;99.90
51035;DHT22;37062;52.546;13.230;2024-02-04T00:05:17;10.10;99.90
51035;DHT22;37062;52.546;13.230;2024-02-04T00:07:45;10.10;99.90
51035;DHT22;37062;52.546;13.230;2024-02-04T00:10:14;10.10;99.90
51035;DHT22;37062;52.546;13.230;2024-02-04T00:12:44;10.20;99.90
51035;DHT22;37062;52.546;13.230;2024-02-04T00:15:14;10.20;99.90
51035;DHT22;37062;52.546;13.230;2024-02-04T00:17:42;10.20;99.90
51035;DHT22;37062;52.546;13.230;2024-02-04T00:20:10;10.20;99.90
51035;DHT22;37062;52.546;13.230;2024-02-04T00:22:39;10.20;99.90
51035;DHT22;37062;52.546;13.230;2024-02-04T00:25:07;10.20;99.90
51035;DHT22;37062;52.546;13.230;2024-02-04T00:27:39;10.10;99.90
51035;DHT22;37062;52.546;13.230;2024-02-04T00:30:08;10.10;99.90
51035;DHT22;37062;52.546;13.230;2024-02-04T00:32:38;10.00;99.90
51035;DHT22;37062;52.546;13.230;2024-02-04T00:35:07;9.90;99.90
51035;DHT22;37062;52.546;13.230;2024-02-04T00:37:35;9.80;99.90
51035;DHT22;37062;52.546;13.230;2024-02-04T00:40:04;9.70;99.90
51035;DHT22;37062;52.546;13.230;2024-02-04T00:42:33;9.70;99.90
51035;DHT22;37062;52.546;13.230;2024-02-04T00:45:01;9.70;99.90
51035;DHT22;37062;52.546;13.230;2024-02-04T00:47:30;9.60;99.90
51035;DHT22;37062;52.546;13.230;2024-02-04T00:50:00;9.60;99.90
51035;DHT22;37062;52.546;13.230;2024-02-04T00:52:28;9.50;99.90
51035;DHT22;37062;52.546;13.230;2024-02-04T00:54:56;9.40;99.90
51035;DHT22;37062;52.546;13.230;2024-02-04T00:57:25;9.40;99.90
51035;DHT22;37062;52.546;13.230;2024-02-04T00:59:53;9.30;99.90
51035;DHT22;37062;52.546;13.230;2024-02-04T01:02:21;9.30;99.90
51035;DHT22;37062;52.546;13.230;2024-02-04T01:04:50;9.30;99.90
51035;DHT22;37062;52.546;13.230;2024-02-04T01:07:19;9.30;99.90
51035;DHT22;37062;52.546;13.230;2024-02-04T01:09:48;9.20;99.90
51035;DHT22;37062;52.546;13.230;2024-02-04T01:12:16;9.20;99.90
51035;DHT22;37062;52.546;13.230;2024-02-04T01:14:44;9.20;99.90
51035;DHT22;37062;52.546;13.230;2024-02-04T01:17:13;9.20;99.90
51035;DHT22;37062;52.546;13.230;2024-02-04T01:19:41;9.20;99.90
51035;DHT22;37062;52.546;13.230;2024-02-04T01:22:09;9.10;99.90
51035;DHT22;37062;52.546;13.230;2024-02-04T01:24:40;9.10;99.90
51035;DHT22;37062;52.546;13.230;2024-02-04T01:27:08;9.10;99.90
51035;DHT22;37062;52.546;13.230;2024-02-04T01:29:36;9.10;99.90
51035;DHT22;37062;52.546;13.230;2024-02-04T01:32:05;9.20;99.90
51035;DHT22;37062;52.546;13.230;2024-02-04T01:34:34;9.30;99.90
51035;DHT22;37062;52.546;13.230;2024-02-04T01:37:03;9.30;99.90
51035;DHT22;37062;52.546;13.230;2024-02-04T01:39:32;9.30;99.90
51035;DHT22;37062;52.546;13.230;2024-02-04T01:42:03;9.20;99.90
51035;DHT22;37062;52.546;13.230;2024-02-04T01:44:32;9.20;99.90
51035;DHT22;37062;52.546;13.230;2024-02-04T01:47:00;9.10;99.90
51035;DHT22;37062;52.546;13.230;2024-02-04T01:49:30;9.10;99.90
51035;DHT22;37062;52.546;13.230;2024-02-04T01:51:59;9.00;99.90
51035;DHT22;37062;52.546;13.230;2024-02-04T01:54:31;9.00;99.90
51035;DHT22;37062;52.546;13.230;2024-02-04T01:56:59;8.90;99.90
51035;DHT22;37062;52.546;13.230;2024-02-04T01:59:30;8.80;99.90
51035;DHT22;37062;52.546;13.230;2024-02-04T02:01:59;8.80;99.90
51035;DHT22;37062;52.546;13.230;2024-02-04T02:04:28;8.80;99.90
51035;DHT22;37062;52.546;13.230;2024-02-04T02:06:57;8.70;99.90
51035;DHT22;37062;52.546;13.230;2024-02-04T02:09:27;8.70;99.90
51035;DHT22;37062;52.546;13.230;2024-02-04T02:12:03;8.70;99.90
51035;DHT22;37062;52.546;13.230;2024-02-04T02:14:41;8.70;99.90
51035;DHT22;37062;52.546;13.230;2024-02-04T02:17:12;8.80;99.90
51035;DHT22;37062;52.546;13.230;2024-02-04T02:19:48;8.70;99.90
51035;DHT22;37062;52.546;13.230;2024-02-04T02:22:26;8.60;99.90
51035;DHT22;37062;52.546;13.230;2024-02-04T02:24:58;8.60;99.90
51035;DHT22;37062;52.546;13.230;2024-02-04T02:27:27;8.60;99.90
51035;DHT22;37062;52.546;13.230;2024-02-04T02:29:56;8.60;99.90
51035;DHT22;37062;52.546;13.230;2024-02-04T02:32:24;8.60;99.90
51035;DHT22;37062;52.546;13.230;2024-02-04T02:34:53;8.60;99.90
51035;DHT22;37062;52.546;13.230;2024-02-04T02:37:26;8.60;99.90
51035;DHT22;37062;52.546;13.230;2024-02-04T02:40:01;8.60;99.90
51035;DHT22;37062;52.546;13.230;2024-02-04T02:42:34;8.70;99.90
51035;DHT22;37062;52.546;13.230;2024-02-04T02:45:04;8.70;99.90
51035;DHT22;37062;52.546;13.230;2024-02-04T02:47:35;8.70;99.90
51035;DHT22;37062;52.546;13.230;2024-02-04T02:50:05;8.80;99.90
51035;DHT22;37062;52.546;13.230;2024-02-04T02:52:34;8.80;99.90
51035;DHT22;37062;52.546;13.230;2024-02-04T02:55:04;8.80;99.90
51035;DHT22;37062;52.546;13.230;2024-02-04T02:57:32;8.70;99.90
51035;DHT22;37062;52.546;13.230;2024-02-04T03:00:01;8.80;99.90
51035;DHT22;37062;52.546;13.230;2024-02-04T03:02:30;8.80;99.90
51035;DHT22;37062;52.546;13.230;2024-02-04T03:04:59;8.80;99.90
51035;DHT22;37062;52.546;13.230;2024-02-04T03:07:27;8.80;99.90
51035;DHT22;37062;52.546;13.230;2024-02-04T03:09:55;8.80;99.90
51035;DHT22;37062;52.546;13.230;2024-02-04T03:12:24;8.80;99.90
51035;DHT22;37062;52.546;13.230;2024-02-04T03:14:53;8.90;99.90
51035;DHT22;37062;52.546;13.230;2024-02-04T03:17:21;8.90;99.90
51035;DHT22;37062;52.546;13.230;2024-02-04T03:19:51;8.90;99.90
51035;DHT22;37062;52.546;13.230;2024-02-04T03:22:22;8.90;99.90
51035;DHT22;37062;52.546;13.230;2024-02-04T03:24:50;8.90;99.90
51035;DHT22;37062;52.546;13.230;2024-02-04T03:27:20;8.90;99.90
51035;DHT22;37062;52.546;13.230;2024-02-04T03:29:50;8.90;99.90
51035;DHT22;37062;52.546;13.230;2024-02-04T03:32:18;8.90;99.90
51035;DHT22;37062;52.546;13.230;2024-02-04T03:34:46;9.00;99.90
51035;DHT22;37062;52.546;13.230;2024-02-04T03:37:15;9.00;99.90
51035;DHT22;37062;52.546;13.230;2024-02-04T03:39:43;9.10;99.90
51035;DHT22;37062;52.546;13.230;2024-02-04T03:42:11;9.10;99.90
51035;DHT22;37062;52.546;13.230;2024-02-04T03:44:40;9.10;99.90
51035;DHT22;37062;52.546;13.230;2024-02-04T03:47:09;9.10;99.90
51035;DHT22;37062;52.546;13.230;2024-02-04T03:49:37;9.10;99.90
51035;DHT22;37062;52.546;13.230;2024-02-04T03:52:06;9.20;99.90
51035;DHT22;37062;52.546;13.230;2024-02-04T03:54:34;9.20;99.90
51035;DHT22;37062;52.546;13.230;2024-02-04T03:57:03;9.10;99.90
51035;DHT22;37062;52.546;13.230;2024-02-04T03:59:31;9.10;99.90
51035;DHT22;37062;52.546;13.230;2024-02-04T04:01:59;9.10;99.90
51035;DHT22;37062;52.546;13.230;2024-02-04T04:04:29;9.10;99.90
51035;DHT22;37062;52.546;13.230;2024-02-04T04:06:58;9.10;99.90
51035;DHT22;37062;52.546;13.230;2024-02-04T04:09:26;9.10;99.90
51035;DHT22;37062;52.546;13.230;2024-02-04T04:11:54;9.00;99.90
51035;DHT22;37062;52.546;13.230;2024-02-04T04:14:22;8.90;99.90
51035;DHT22;37062;52.546;13.230;2024-02-04T04:16:51;8.80;99.90
51035;DHT22;37062;52.546;13.230;2024-02-04T04:19:19;8.80;99.90
51035;DHT22;37062;52.546;13.230;2024-02-04T04:21:49;8.80;99.90
51035;DHT22;37062;52.546;13.230;2024-02-04T04:24:17;8.80;99.90
51035;DHT22;37062;52.546;13.230;2024-02-04T04:26:46;8.80;99.90
51035;DHT22;37062;52.546;13.230;2024-02-04T04:29:15;8.70;99.90
51035;DHT22;37062;52.546;13.230;2024-02-04T04:31:43;8.70;99.90
51035;DHT22;37062;52.546;13.230;2024-02-04T04:34:11;8.60;99.90
51035;DHT22;37062;52.546;13.230;2024-02-04T04:36:40;8.60;99.90
51035;DHT22;37062;52.546;13.230;2024-02-04T04:39:10;8.50;99.90
51035;DHT22;37062;52.546;13.230;2024-02-04T04:41:39;8.60;99.90
51035;DHT22;37062;52.546;13.230;2024-02-04T04:44:07;8.60;99.90
51035;DHT22;37062;52.546;13.230;2024-02-04T04:46:37;8.50;99.90
51035;DHT22;37062;52.546;13.230;2024-02-04T04:49:05;8.60;99.90
51035;DHT22;37062;52.546;13.230;2024-02-04T04:51:34;8.60;99.90
51035;DHT22;37062;52.546;13.230;2024-02-04T04:54:02;8.60;99.90
51035;DHT22;37062;52.546;13.230;2024-02-04T04:56:38;8.60;99.90
51035;DHT22;37062;52.546;13.230;2024-02-04T04:59:09;8.60;99.90
51035;DHT22;37062;52.546;13.230;2024-02-04T05:01:37;8.60;99.90
51035;DHT22;37062;52.546;13.230;2024-02-04T05:04:05;8.60;99.90
51035;DHT22;37062;52.546;13.230;2024-02-04T05:06:34;8.50;99.90
51035;DHT22;37062;52.546;13.230;2024-02-04T05:09:02;8.40;99.90
51035;DHT22;37062;52.546;13.230;2024-02-04T05:11:32;8.40;99.90
51035;DHT22;37062;52.546;13.230;2024-02-04T05:14:00;8.40;99.90
51035;DHT22;37062;52.546;13.230;2024-02-04T05:16:28;8.40;99.90
51035;DHT22;37062;52.546;13.230;2024-02-04T05:18:56;8.30;99.90
51035;DHT22;37062;52.546;13.230;2024-02-04T05:21:25;8.30;99.90
51035;DHT22;37062;52.546;13.230;2024-02-04T05:23:53;8.30;99.90
51035;DHT22;37062;52.546;13.230;2024-02-04T05:26:21;8.30;99.90
51035;DHT22;37062;52.546;13.230;2024-02-04T05:28:51;8.30;99.90
51035;DHT22;37062;52.546;13.230;2024-02-04T05:31:19;8.30;99.90
51035;DHT22;37062;52.546;13.230;2024-02-04T05:33:47;8.30;99.90
51035;DHT22;37062;52.546;13.230;2024-02-04T05:36:15;8.30;99.90
51035;DHT22;37062;52.546;13.230;2024-02-04T05:38:45;8.30;99.90
51035;DHT22;37062;52.546;13.230;2024-02-04T05:41:13;8.20;99.90
51035;DHT22;37062;52.546;13.230;2024-02-04T05:43:41;8.20;99.90
51035;DHT22;37062;52.546;13.230;2024-02-04T05:46:13;8.30;99.90
51035;DHT22;37062;52.546;13.230;2024-02-04T05:48:41;8.30;99.90
51035;DHT22;37062;52.546;13.230;2024-02-04T05:51:12;8.30;99.90
51035;DHT22;37062;52.546;13.230;2024-02-04T05:53:40;8.30;99.90
51035;DHT22;37062;52.546;13.230;2024-02-04T05:56:08;8.30;99.90
51035;DHT22;37062;52.546;13.230;2024-02-04T05:58:37;8.30;99.90
51035;DHT22;37062;52.546;13.230;2024-02-04T06:01:05;8.40;99.90
51035;DHT22;37062;52.546;13.230;2024-02-04T06:03:36;8.30;99.90
51035;DHT22;37062;52.546;13.230;2024-02-04T06:06:04;8.30;99.90
51035;DHT22;37062;52.546;13.230;2024-02-04T06:08:33;8.30;99.90
51035;DHT22;37062;52.546;13.230;2024-02-04T06:11:01;8.30;99.90
51035;DHT22;37062;52.546;13.230;2024-02-04T06:13:29;8.30;99.90
51035;DHT22;37062;52.546;13.230;2024-02-04T06:15:57;8.30;99.90
51035;DHT22;37062;52.546;13.230;2024-02-04T06:18:26;8.30;99.90
51035;DHT22;37062;52.546;13.230;2024-02-04T06:20:56;8.30;99.90
51035;DHT22;37062;52.546;13.230;2024-02-04T06:23:24;8.40;99.90
51035;DHT22;37062;52.546;13.230;2024-02-04T06:25:52;8.30;99.90
51035;DHT22;37062;52.546;13.230;2024-02-04T06:28:20;8.30;99.90
51035;DHT22;37062;52.546;13.230;2024-02-04T06:30:49;8.30;99.90
51035;DHT22;37062;52.546;13.230;2024-02-04T06:33:17;8.20;99.90
51035;DHT22;37062;52.546;13.230;2024-02-04T06:35:46;8.20;99.90
51035;DHT22;37062;52.546;13.230;2024-02-04T06:38:16;8.20;99.90
51035;DHT22;37062;52.546;13.230;2024-02-04T06:40:44;8.20;99.90
51035;DHT22;37062;52.546;13.230;2024-02-04T06:43:12;8.20;99.90
51035;DHT22;37062;52.546;13.230;2024-02-04T06:45:41;8.20;99.90
51035;DHT22;37062;52.546;13.230;2024-02-04T06:48:09;8.30;99.90
51035;DHT22;37062;52.546;13.230;2024-02-04T06:50:37;8.30;99.90
51035;DHT22;37062;52.546;13.230;2024-02-04T06:53:06;8.30;99.90
51035;DHT22;37062;52.546;13.230;2024-02-04T06:55:35;8.30;99.90
51035;DHT22;37062;52.546;13.230;2024-02-04T06:58:03;8.30;99.90
51035;DHT22;37062;52.546;13.230;2024-02-04T07:00:32;8.30;99.90
51035;DHT22;37062;52.546;13.230;2024-02-04T07:03:00;8.30;99.90
51035;DHT22;37062;52.546;13.230;2024-02-04T07:05:29;8.40;99.90
51035;DHT22;37062;52.546;13.230;2024-02-04T07:07:58;8.50;99.90
51035;DHT22;37062;52.546;13.230;2024-02-04T07:10:26;8.60;99.90
51035;DHT22;37062;52.546;13.230;2024-02-04T07:12:55;8.70;99.90
51035;DHT22;37062;52.546;13.230;2024-02-04T07:15:24;8.80;99.90
51035;DHT22;37062;52.546;13.230;2024-02-04T07:17:52;8.90;99.90
51035;DHT22;37062;52.546;13.230;2024-02-04T07:20:21;8.90;99.90
51035;DHT22;37062;52.546;13.230;2024-02-04T07:22:50;8.90;99.90
51035;DHT22;37062;52.546;13.230;2024-02-04T07:25:18;8.90;99.90
51035;DHT22;37062;52.546;13.230;2024-02-04T07:27:47;9.00;99.90
51035;DHT22;37062;52.546;13.230;2024-02-04T07:30:17;9.00;99.90
51035;DHT22;37062;52.546;13.230;2024-02-04T07:32:45;9.00;99.90
51035;DHT22;37062;52.546;13.230;2024-02-04T07:35:13;9.00;99.90
51035;DHT22;37062;52.546;13.230;2024-02-04T07:37:42;9.00;99.90
51035;DHT22;37062;52.546;13.230;2024-02-04T07:40:11;9.00;99.90
51035;DHT22;37062;52.546;13.230;2024-02-04T07:42:39;9.00;99.90
51035;DHT22;37062;52.546;13.230;2024-02-04T07:45:09;9.00;99.90
51035;DHT22;37062;52.546;13.230;2024-02-04T07:47:38;9.10;99.90
51035;DHT22;37062;52.546;13.230;2024-02-04T07:50:08;9.10;99.90
51035;DHT22;37062;52.546;13.230;2024-02-04T07:52:36;9.10;99.90
51035;DHT22;37062;52.546;13.230;2024-02-04T07:55:09;9.10;99.90
51035;DHT22;37062;52.546;13.230;2024-02-04T07:57:37;9.10;99.90
51035;DHT22;37062;52.546;13.230;2024-02-04T08:00:07;9.20;99.90
51035;DHT22;37062;52.546;13.230;2024-02-04T08:02:43;9.20;99.90
51035;DHT22;37062;52.546;13.230;2024-02-04T08:05:12;9.30;99.90
51035;DHT22;37062;52.546;13.230;2024-02-04T08:07:40;9.40;99.90
51035;DHT22;37062;52.546;13.230;2024-02-04T08:10:09;9.50;99.90
51035;DHT22;37062;52.546;13.230;2024-02-04T08:12:37;9.50;99.90
51035;DHT22;37062;52.546;13.230;2024-02-04T08:15:06;9.60;99.90
51035;DHT22;37062;52.546;13.230;2024-02-04T08:17:35;9.80;99.90
51035;DHT22;37062;52.546;13.230;2024-02-04T08:20:05;9.90;99.90
51035;DHT22;37062;52.546;13.230;2024-02-04T08:22:34;9.90;99.90
51035;DHT22;37062;52.546;13.230;2024-02-04T08:25:02;9.90;99.90
51035;DHT22;37062;52.546;13.230;2024-02-04T08:27:32;10.00;99.90
51035;DHT22;37062;52.546;13.230;2024-02-04T08:30:01;10.00;99.90
51035;DHT22;37062;52.546;13.230;2024-02-04T08:32:29;10.00;99.90
51035;DHT22;37062;52.546;13.230;2024-02-04T08:34:57;10.00;99.90
51035;DHT22;37062;52.546;13.230;2024-02-04T08:37:27;10.00;99.90
51035;DHT22;37062;52.546;13.230;2024-02-04T08:39:55;10.00;99.90
51035;DHT22;37062;52.546;13.230;2024-02-04T08:42:23;10.00;99.90
51035;DHT22;37062;52.546;13.230;2024-02-04T08:44:51;10.00;99.90
51035;DHT22;37062;52.546;13.230;2024-02-04T08:47:20;10.00;99.90
51035;DHT22;37062;52.546;13.230;2024-02-04T08:49:48;10.00;99.90
51035;DHT22;37062;52.546;13.230;2024-02-04T08:52:16;10.10;99.90
51035;DHT22;37062;52.546;13.230;2024-02-04T08:54:46;10.00;99.90
51035;DHT22;37062;52.546;13.230;2024-02-04T08:57:14;10.00;99.90
51035;DHT22;37062;52.546;13.230;2024-02-04T08:59:43;9.90;99.90
51035;DHT22;37062;52.546;13.230;2024-02-04T09:02:11;9.90;99.90
51035;DHT22;37062;52.546;13.230;2024-02-04T09:04:40;9.90;99.90
51035;DHT22;37062;52.546;13.230;2024-02-04T09:07:08;9.90;99.90
51035;DHT22;37062;52.546;13.230;2024-02-04T09:09:37;9.90;99.90
51035;DHT22;37062;52.546;13.230;2024-02-04T09:12:07;9.90;99.90
51035;DHT22;37062;52.546;13.230;2024-02-04T09:14:36;10.00;99.90
51035;DHT22;37062;52.546;13.230;2024-02-04T09:17:05;10.10;99.90
51035;DHT22;37062;52.546;13.230;2024-02-04T09:19:33;10.10;99.90
51035;DHT22;37062;52.546;13.230;2024-02-04T09:22:06;10.10;99.90
51035;DHT22;37062;52.546;13.230;2024-02-04T09:24:34;10.10;99.90
51035;DHT22;37062;52.546;13.230;2024-02-04T09:27:04;10.20;99.90
51035;DHT22;37062;52.546;13.230;2024-02-04T09:29:33;10.30;99.90
51035;DHT22;37062;52.546;13.230;2024-02-04T09:32:02;10.30;99.90
51035;DHT22;37062;52.546;13.230;2024-02-04T09:34:30;10.40;99.90
51035;DHT22;37062;52.546;13.230;2024-02-04T09:36:59;10.50;99.90
51035;DHT22;37062;52.546;13.230;2024-02-04T09:39:27;10.60;99.90
51035;DHT22;37062;52.546;13.230;2024-02-04T09:41:56;10.70;99.90
51035;DHT22;37062;52.546;13.230;2024-02-04T09:44:25;10.70;99.90
51035;DHT22;37062;52.546;13.230;2024-02-04T09:46:54;10.70;99.90
51035;DHT22;37062;52.546;13.230;2024-02-04T09:49:25;10.80;99.90
51035;DHT22;37062;52.546;13.230;2024-02-04T09:51:56;10.90;99.90
51035;DHT22;37062;52.546;13.230;2024-02-04T09:54:27;10.90;99.90
51035;DHT22;37062;52.546;13.230;2024-02-04T09:56:56;10.90;99.90
51035;DHT22;37062;52.546;13.230;2024-02-04T09:59:24;11.00;99.90
51035;DHT22;37062;52.546;13.230;2024-02-04T10:01:54;11.00;99.90
51035;DHT22;37062;52.546;13.230;2024-02-04T10:04:23;11.10;99.90
51035;DHT22;37062;52.546;13.230;2024-02-04T10:06:52;11.10;99.90
51035;DHT22;37062;52.546;13.230;2024-02-04T10:09:21;11.20;99.90
51035;DHT22;37062;52.546;13.230;2024-02-04T10:11:49;11.20;99.90
51035;DHT22;37062;52.546;13.230;2024-02-04T10:14:18;11.30;99.90
51035;DHT22;37062;52.546;13.230;2024-02-04T10:16:47;11.20;99.90
51035;DHT22;37062;52.546;13.230;2024-02-04T10:19:16;11.30;99.90
51035;DHT22;37062;52.546;13.230;2024-02-04T10:21:45;11.30;99.90
51035;DHT22;37062;52.546;13.230;2024-02-04T10:24:13;11.30;99.90
51035;DHT22;37062;52.546;13.230;2024-02-04T10:26:41;11.30;99.90
51035;DHT22;37062;52.546;13.230;2024-02-04T10:29:10;11.40;99.90
51035;DHT22;37062;52.546;13.230;2024-02-04T10:31:40;11.30;99.90
51035;DHT22;37062;52.546;13.230;2024-02-04T10:34:08;11.40;99.90
51035;DHT22;37062;52.546;13.230;2024-02-04T10:36:38;11.50;99.90
51035;DHT22;37062;52.546;13.230;2024-02-04T10:39:07;11.50;99.90
51035;DHT22;37062;52.546;13.230;2024-02-04T10:41:37;11.60;99.90
51035;DHT22;37062;52.546;13.230;2024-02-04T10:44:11;11.60;99.90
51035;DHT22;37062;52.546;13.230;2024-02-04T10:46:43;11.50;99.90
51035;DHT22;37062;52.546;13.230;2024-02-04T10:49:15;11.40;99.90
51035;DHT22;37062;52.546;13.230;2024-02-04T10:51:45;11.50;99.90
51035;DHT22;37062;52.546;13.230;2024-02-04T10:54:15;11.50;99.90
51035;DHT22;37062;52.546;13.230;2024-02-04T10:56:46;11.60;99.90
51035;DHT22;37062;52.546;13.230;2024-02-04T10:59:15;11.50;99.90
51035;DHT22;37062;52.546;13.230;2024-02-04T11:01:46;11.50;99.90
51035;DHT22;37062;52.546;13.230;2024-02-04T11:04:17;11.50;99.90
51035;DHT22;37062;52.546;13.230;2024-02-04T11:06:48;11.50;99.90
51035;DHT22;37062;52.546;13.230;2024-02-04T11:09:17;11.50;99.90
51035;DHT22;37062;52.546;13.230;2024-02-04T11:11:47;11.50;99.90
51035;DHT22;37062;52.546;13.230;2024-02-04T11:14:18;11.40;99.90
51035;DHT22;37062;52.546;13.230;2024-02-04T11:17:05;11.40;99.90
51035;DHT22;37062;52.546;13.230;2024-02-04T11:19:45;11.40;99.90
51035;DHT22;37062;52.546;13.230;2024-02-04T11:22:40;11.50;99.90
51035;DHT22;37062;52.546;13.230;2024-02-04T11:25:34;11.50;99.90
51035;DHT22;37062;52.546;13.230;2024-02-04T11:28:06;11.40;99.90
51035;DHT22;37062;52.546;13.230;2024-02-04T11:30:36;11.50;99.90
51035;DHT22;37062;52.546;13.230;2024-02-04T11:33:05;11.40;99.90
51035;DHT22;37062;52.546;13.230;2024-02-04T11:35:35;11.30;99.90
51035;DHT22;37062;52.546;13.230;2024-02-04T11:38:05;11.30;99.90
51035;DHT22;37062;52.546;13.230;2024-02-04T11:40:35;11.30;99.90
51035;DHT22;37062;52.546;13.230;2024-02-04T11:43:05;11.30;99.90
51035;DHT22;37062;52.546;13.230;2024-02-04T11:45:37;11.30;99.90
51035;DHT22;37062;52.546;13.230;2024-02-04T11:48:07;11.30;99.90
51035;DHT22;37062;52.546;13.230;2024-02-04T11:50:37;11.20;99.90
51035;DHT22;37062;52.546;13.230;2024-02-04T11:53:09;11.20;99.90
51035;DHT22;37062;52.546;13.230;2024-02-04T11:55:40;11.30;99.90
51035;DHT22;37062;52.546;13.230;2024-02-04T11:58:12;11.50;99.90
51035;DHT22;37062;52.546;13.230;2024-02-04T12:00:42;11.50;99.90
51035;DHT22;37062;52.546;13.230;2024-02-04T12:03:11;11.40;99.90
51035;DHT22;37062;52.546;13.230;2024-02-04T12:05:40;11.50;99.90
51035;DHT22;37062;52.546;13.230;2024-02-04T12:08:11;11.60;99.90
51035;DHT22;37062;52.546;13.230;2024-02-04T12:10:40;11.60;99.90
51035;DHT22;37062;52.546;13.230;2024-02-04T12:13:09;11.50;99.90
51035;DHT22;37062;52.546;13.230;2024-02-04T12:15:38;11.40;99.90
51035;DHT22;37062;52.546;13.230;2024-02-04T12:18:07;11.30;99.90
51035;DHT22;37062;52.546;13.230;2024-02-04T12:20:36;11.10;99.90
51035;DHT22;37062;52.546;13.230;2024-02-04T12:23:05;11.00;99.90
51035;DHT22;37062;52.546;13.230;2024-02-04T12:25:35;11.00;99.90
51035;DHT22;37062;52.546;13.230;2024-02-04T12:28:08;11.00;99.90
51035;DHT22;37062;52.546;13.230;2024-02-04T12:30:37;11.00;99.90
51035;DHT22;37062;52.546;13.230;2024-02-04T12:33:06;11.00;99.90
51035;DHT22;37062;52.546;13.230;2024-02-04T12:35:36;10.90;99.90
51035;DHT22;37062;52.546;13.230;2024-02-04T12:38:05;11.00;99.90
51035;DHT22;37062;52.546;13.230;2024-02-04T12:40:36;10.90;99.90
51035;DHT22;37062;52.546;13.230;2024-02-04T12:43:04;10.90;99.90
51035;DHT22;37062;52.546;13.230;2024-02-04T12:45:33;10.90;99.90
51035;DHT22;37062;52.546;13.230;2024-02-04T12:48:02;10.90;99.90
51035;DHT22;37062;52.546;13.230;2024-02-04T12:50:30;10.90;99.90
51035;DHT22;37062;52.546;13.230;2024-02-04T12:53:04;11.00;99.90
51035;DHT22;37062;52.546;13.230;2024-02-04T12:55:35;11.00;99.90
51035;DHT22;37062;52.546;13.230;2024-02-04T12:58:05;11.00;99.90
51035;DHT22;37062;52.546;13.230;2024-02-04T13:00:34;11.00;99.90
51035;DHT22;37062;52.546;13.230;2024-02-04T13:03:04;11.00;99.90
51035;DHT22;37062;52.546;13.230;2024-02-04T13:05:33;11.00;99.90
51035;DHT22;37062;52.546;13.230;2024-02-04T13:08:02;11.00;99.90
51035;DHT22;37062;52.546;13.230;2024-02-04T13:10:33;11.00;99.90
51035;DHT22;37062;52.546;13.230;2024-02-04T13:13:04;11.00;99.90
51035;DHT22;37062;52.546;13.230;2024-02-04T13:15:36;11.00;99.90
51035;DHT22;37062;52.546;13.230;2024-02-04T13:18:05;11.00;99.90
51035;DHT22;37062;52.546;13.230;2024-02-04T13:20:35;11.00;99.90
51035;DHT22;37062;52.546;13.230;2024-02-04T13:23:03;10.90;99.90
51035;DHT22;37062;52.546;13.230;2024-02-04T13:25:33;10.80;99.90
51035;DHT22;37062;52.546;13.230;2024-02-04T13:28:03;10.80;99.90
51035;DHT22;37062;52.546;13.230;2024-02-04T13:30:32;10.80;99.90
51035;DHT22;37062;52.546;13.230;2024-02-04T13:33:00;10.80;99.90
51035;DHT22;37062;52.546;13.230;2024-02-04T13:35:30;10.80;99.90
51035;DHT22;37062;52.546;13.230;2024-02-04T13:37:59;10.80;99.90
51035;DHT22;37062;52.546;13.230;2024-02-04T13:40:27;10.80;99.90
51035;DHT22;37062;52.546;13.230;2024-02-04T13:42:56;10.90;99.90
51035;DHT22;37062;52.546;13.230;2024-02-04T13:45:26;10.90;99.90
51035;DHT22;37062;52.546;13.230;2024-02-04T13:47:54;10.70;99.90
51035;DHT22;37062;52.546;13.230;2024-02-04T13:50:23;10.70;99.90
51035;DHT22;37062;52.546;13.230;2024-02-04T13:52:51;10.70;99.90
51035;DHT22;37062;52.546;13.230;2024-02-04T13:55:19;10.70;99.90
51035;DHT22;37062;52.546;13.230;2024-02-04T13:57:48;10.70;99.90
51035;DHT22;37062;52.546;13.230;2024-02-04T14:00:16;10.70;99.90
51035;DHT22;37062;52.546;13.230;2024-02-04T14:02:46;10.60;99.90
51035;DHT22;37062;52.546;13.230;2024-02-04T14:05:14;10.60;99.90
51035;DHT22;37062;52.546;13.230;2024-02-04T14:07:43;10.70;99.90
51035;DHT22;37062;52.546;13.230;2024-02-04T14:10:11;10.80;99.90
51035;DHT22;37062;52.546;13.230;2024-02-04T14:12:41;10.80;99.90
51035;DHT22;37062;52.546;13.230;2024-02-04T14:15:12;10.80;99.90
51035;DHT22;37062;52.546;13.230;2024-02-04T14:17:40;10.70;99.90
51035;DHT22;37062;52.546;13.230;2024-02-04T14:20:11;10.70;99.90
51035;DHT22;37062;52.546;13.230;2024-02-04T14:22:41;10.70;99.90
51035;DHT22;37062;52.546;13.230;2024-02-04T14:25:09;10.70;99.90
51035;DHT22;37062;52.546;13.230;2024-02-04T14:27:39;10.70;99.90
51035;DHT22;37062;52.546;13.230;2024-02-04T14:30:08;10.80;99.90
51035;DHT22;37062;52.546;13.230;2024-02-04T14:32:37;10.70;99.90
51035;DHT22;37062;52.546;13.230;2024-02-04T14:35:06;10.70;99.90
51035;DHT22;37062;52.546;13.230;2024-02-04T14:37:37;10.70;99.90
51035;DHT22;37062;52.546;13.230;2024-02-04T14:40:08;10.70;99.90
51035;DHT22;37062;52.546;13.230;2024-02-04T14:42:36;10.60;99.90
51035;DHT22;37062;52.546;13.230;2024-02-04T14:45:09;10.60;99.90
51035;DHT22;37062;52.546;13.230;2024-02-04T14:47:39;10.60;99.90
51035;DHT22;37062;52.546;13.230;2024-02-04T14:50:08;10.60;99.90
51035;DHT22;37062;52.546;13.230;2024-02-04T14:52:38;10.70;99.90
51035;DHT22;37062;52.546;13.230;2024-02-04T14:55:07;10.70;99.90
51035;DHT22;37062;52.546;13.230;2024-02-04T14:57:37;10.70;99.90
51035;DHT22;37062;52.546;13.230;2024-02-04T15:00:06;10.70;99.90
51035;DHT22;37062;52.546;13.230;2024-02-04T15:02:37;10.70;99.90
51035;DHT22;37062;52.546;13.230;2024-02-04T15:05:05;10.60;99.90
51035;DHT22;37062;52.546;13.230;2024-02-04T15:07:35;10.60;99.90
51035;DHT22;37062;52.546;13.230;2024-02-04T15:10:05;10.70;99.90
51035;DHT22;37062;52.546;13.230;2024-02-04T15:12:35;10.70;99.90
51035;DHT22;37062;52.546;13.230;2024-02-04T15:15:04;10.70;99.90
51035;DHT22;37062;52.546;13.230;2024-02-04T15:17:33;10.70;99.90
51035;DHT22;37062;52.546;13.230;2024-02-04T15:20:03;10.70;99.90
51035;DHT22;37062;52.546;13.230;2024-02-04T15:22:32;10.70;99.90
51035;DHT22;37062;52.546;13.230;2024-02-04T15:25:00;10.60;99.90
51035;DHT22;37062;52.546;13.230;2024-02-04T15:27:31;10.60;99.90
51035;DHT22;37062;52.546;13.230;2024-02-04T15:30:00;10.60;99.90
51035;DHT22;37062;52.546;13.230;2024-02-04T15:32:29;10.60;99.90
51035;DHT22;37062;52.546;13.230;2024-02-04T15:34:58;10.60;99.90